sensor_id;sensor_type;location;lat;lon;timestamp;temperature;humidity
48043;DHT22;33988;47.992;8.820;2023-03-01T00:01:40;4.00;53.90
48043;DHT22;33988;47.992;8.820;2023-03-01T00:04:07;4.00;53.90
48043;DHT22;33988;47.992;8.820;2023-03-01T00:06:35;4.00;53.90
48043;DHT22;33988;47.992;8.820;2023-03-01T00:09:04;4.00;53.90
48043;DHT22;33988;47.992;8.820;2023-03-01T00:11:36;4.00;53.80
48043;DHT22;33988;47.992;8.820;2023-03-01T00:14:03;4.00;53.90
48043;DHT22;33988;47.992;8.820;2023-03-01T00:16:36;4.10;54.00
48043;DHT22;33988;47.992;8.820;2023-03-01T00:19:08;4.10;54.00
48043;DHT22;33988;47.992;8.820;2023-03-01T00:21:39;4.10;54.00
48043;DHT22;33988;47.992;8.820;2023-03-01T00:24:07;4.20;54.00
48043;DHT22;33988;47.992;8.820;2023-03-01T00:26:34;4.20;54.10
48043;DHT22;33988;47.992;8.820;2023-03-01T00:29:02;4.20;54.10
48043;DHT22;33988;47.992;8.820;2023-03-01T00:31:32;4.20;54.10
48043;DHT22;33988;47.992;8.820;2023-03-01T00:34:03;4.30;54.10
48043;DHT22;33988;47.992;8.820;2023-03-01T00:36:34;4.30;54.00
48043;DHT22;33988;47.992;8.820;2023-03-01T00:39:10;4.30;54.10
48043;DHT22;33988;47.992;8.820;2023-03-01T00:41:40;4.30;54.00
48043;DHT22;33988;47.992;8.820;2023-03-01T00:44:08;4.40;54.10
48043;DHT22;33988;47.992;8.820;2023-03-01T00:46:38;4.40;54.00
48043;DHT22;33988;47.992;8.820;2023-03-01T00:49:07;4.40;54.00
48043;DHT22;33988;47.992;8.820;2023-03-01T00:51:37;4.40;54.00
48043;DHT22;33988;47.992;8.820;2023-03-01T00:54:05;4.50;54.10
48043;DHT22;33988;47.992;8.820;2023-03-01T00:56:35;4.50;54.00
48043;DHT22;33988;47.992;8.820;2023-03-01T00:59:02;4.50;54.00
48043;DHT22;33988;47.992;8.820;2023-03-01T01:01:31;4.60;54.10
48043;DHT22;33988;47.992;8.820;2023-03-01T01:06:30;4.60;54.00
48043;DHT22;33988;47.992;8.820;2023-03-01T01:09:00;4.60;54.00
48043;DHT22;33988;47.992;8.820;2023-03-01T01:11:29;4.60;54.10
48043;DHT22;33988;47.992;8.820;2023-03-01T01:13:57;4.70;54.10
48043;DHT22;33988;47.992;8.820;2023-03-01T01:16:26;4.70;54.00
48043;DHT22;33988;47.992;8.820;2023-03-01T01:18:55;4.70;54.00
48043;DHT22;33988;47.992;8.820;2023-03-01T01:21:24;4.80;54.70
48043;DHT22;33988;47.992;8.820;2023-03-01T01:23:52;4.80;54.00
48043;DHT22;33988;47.992;8.820;2023-03-01T01:26:24;4.80;54.00
48043;DHT22;33988;47.992;8.820;2023-03-01T01:28:53;4.80;54.00
48043;DHT22;33988;47.992;8.820;2023-03-01T01:31:21;4.90;54.00
48043;DHT22;33988;47.992;8.820;2023-03-01T01:33:54;4.90;54.00
48043;DHT22;33988;47.992;8.820;2023-03-01T01:36:27;4.90;53.90
48043;DHT22;33988;47.992;8.820;2023-03-01T01:38:56;4.90;54.60
48043;DHT22;33988;47.992;8.820;2023-03-01T01:41:25;4.90;53.90
48043;DHT22;33988;47.992;8.820;2023-03-01T01:44:22;5.00;53.90
48043;DHT22;33988;47.992;8.820;2023-03-01T01:46:57;5.00;53.90
48043;DHT22;33988;47.992;8.820;2023-03-01T01:52:52;5.10;53.90
48043;DHT22;33988;47.992;8.820;2023-03-01T01:55:10;5.10;54.50
48043;DHT22;33988;47.992;8.820;2023-03-01T01:57:41;5.10;53.80
48043;DHT22;33988;47.992;8.820;2023-03-01T02:00:17;5.10;53.80
48043;DHT22;33988;47.992;8.820;2023-03-01T02:02:51;5.10;53.80
48043;DHT22;33988;47.992;8.820;2023-03-01T02:08:26;5.20;53.80
48043;DHT22;33988;47.992;8.820;2023-03-01T02:10:57;5.20;53.80
48043;DHT22;33988;47.992;8.820;2023-03-01T02:13:26;5.20;53.80
48043;DHT22;33988;47.992;8.820;2023-03-01T02:15:56;5.20;53.80
48043;DHT22;33988;47.992;8.820;2023-03-01T02:18:24;5.30;53.90
48043;DHT22;33988;47.992;8.820;2023-03-01T02:21:13;5.30;53.80
48043;DHT22;33988;47.992;8.820;2023-03-01T02:24:15;5.30;53.90
48043;DHT22;33988;47.992;8.820;2023-03-01T02:26:49;5.30;53.80
48043;DHT22;33988;47.992;8.820;2023-03-01T02:29:19;5.30;53.80
48043;DHT22;33988;47.992;8.820;2023-03-01T02:31:49;5.40;53.80
48043;DHT22;33988;47.992;8.820;2023-03-01T02:34:20;5.40;53.80
48043;DHT22;33988;47.992;8.820;2023-03-01T02:37:01;5.40;53.80
48043;DHT22;33988;47.992;8.820;2023-03-01T02:39:40;5.40;53.80
48043;DHT22;33988;47.992;8.820;2023-03-01T02:42:14;5.40;53.70
48043;DHT22;33988;47.992;8.820;2023-03-01T02:44:43;5.40;53.70
48043;DHT22;33988;47.992;8.820;2023-03-01T02:47:11;5.50;53.80
48043;DHT22;33988;47.992;8.820;2023-03-01T02:49:41;5.50;53.70
48043;DHT22;33988;47.992;8.820;2023-03-01T02:57:30;5.50;53.60
48043;DHT22;33988;47.992;8.820;2023-03-01T03:00:02;5.50;53.60
48043;DHT22;33988;47.992;8.820;2023-03-01T03:02:35;5.50;53.60
48043;DHT22;33988;47.992;8.820;2023-03-01T03:07:40;5.60;53.60
48043;DHT22;33988;47.992;8.820;2023-03-01T03:10:14;5.60;53.60
48043;DHT22;33988;47.992;8.820;2023-03-01T03:12:42;5.60;53.60
48043;DHT22;33988;47.992;8.820;2023-03-01T03:15:10;5.60;53.50
48043;DHT22;33988;47.992;8.820;2023-03-01T03:17:40;5.60;53.50
48043;DHT22;33988;47.992;8.820;2023-03-01T03:20:12;5.60;53.50
48043;DHT22;33988;47.992;8.820;2023-03-01T03:22:47;5.60;53.50
48043;DHT22;33988;47.992;8.820;2023-03-01T03:25:17;5.60;53.50
48043;DHT22;33988;47.992;8.820;2023-03-01T03:27:46;5.60;53.50
48043;DHT22;33988;47.992;8.820;2023-03-01T03:30:18;5.70;53.50
48043;DHT22;33988;47.992;8.820;2023-03-01T03:32:47;5.70;53.60
48043;DHT22;33988;47.992;8.820;2023-03-01T03:35:34;5.60;53.50
48043;DHT22;33988;47.992;8.820;2023-03-01T03:38:08;5.70;53.60
48043;DHT22;33988;47.992;8.820;2023-03-01T03:40:55;5.70;53.60
48043;DHT22;33988;47.992;8.820;2023-03-01T03:43:34;5.70;53.60
48043;DHT22;33988;47.992;8.820;2023-03-01T03:46:09;5.60;53.50
48043;DHT22;33988;47.992;8.820;2023-03-01T03:48:40;5.60;53.50
48043;DHT22;33988;47.992;8.820;2023-03-01T03:51:12;5.70;53.60
48043;DHT22;33988;47.992;8.820;2023-03-01T03:53:42;5.70;53.60
48043;DHT22;33988;47.992;8.820;2023-03-01T03:56:14;5.70;53.60
48043;DHT22;33988;47.992;8.820;2023-03-01T03:58:46;5.70;53.50
48043;DHT22;33988;47.992;8.820;2023-03-01T04:01:13;5.70;53.50
48043;DHT22;33988;47.992;8.820;2023-03-01T04:03:40;5.70;53.50
48043;DHT22;33988;47.992;8.820;2023-03-01T04:06:08;5.70;53.50
48043;DHT22;33988;47.992;8.820;2023-03-01T04:08:35;5.70;53.50
48043;DHT22;33988;47.992;8.820;2023-03-01T04:11:03;5.70;53.60
48043;DHT22;33988;47.992;8.820;2023-03-01T04:13:55;5.70;53.50
48043;DHT22;33988;47.992;8.820;2023-03-01T04:16:23;5.70;53.50
48043;DHT22;33988;47.992;8.820;2023-03-01T04:18:54;5.70;53.50
48043;DHT22;33988;47.992;8.820;2023-03-01T04:21:23;5.70;53.50
48043;DHT22;33988;47.992;8.820;2023-03-01T04:23:53;5.70;53.60
48043;DHT22;33988;47.992;8.820;2023-03-01T04:26:23;5.70;53.60
48043;DHT22;33988;47.992;8.820;2023-03-01T04:28:50;5.70;53.60
48043;DHT22;33988;47.992;8.820;2023-03-01T04:31:18;5.80;53.60
48043;DHT22;33988;47.992;8.820;2023-03-01T04:33:49;5.70;53.60
48043;DHT22;33988;47.992;8.820;2023-03-01T04:36:27;5.70;53.60
48043;DHT22;33988;47.992;8.820;2023-03-01T04:38:59;5.80;53.60
48043;DHT22;33988;47.992;8.820;2023-03-01T04:41:28;5.70;53.60
48043;DHT22;33988;47.992;8.820;2023-03-01T04:43:57;5.70;53.60
48043;DHT22;33988;47.992;8.820;2023-03-01T04:46:26;5.70;53.60
48043;DHT22;33988;47.992;8.820;2023-03-01T04:48:56;5.80;53.60
48043;DHT22;33988;47.992;8.820;2023-03-01T04:51:25;5.80;53.60
48043;DHT22;33988;47.992;8.820;2023-03-01T04:53:52;5.80;53.60
48043;DHT22;33988;47.992;8.820;2023-03-01T04:56:19;5.80;53.60
48043;DHT22;33988;47.992;8.820;2023-03-01T04:58:46;5.80;53.60
48043;DHT22;33988;47.992;8.820;2023-03-01T05:01:18;5.80;53.60
48043;DHT22;33988;47.992;8.820;2023-03-01T05:03:48;5.80;53.60
48043;DHT22;33988;47.992;8.820;2023-03-01T05:06:21;5.80;53.60
48043;DHT22;33988;47.992;8.820;2023-03-01T05:08:48;5.80;53.60
48043;DHT22;33988;47.992;8.820;2023-03-01T05:11:15;5.70;53.50
48043;DHT22;33988;47.992;8.820;2023-03-01T05:13:42;5.80;53.60
48043;DHT22;33988;47.992;8.820;2023-03-01T05:16:09;5.70;53.60
48043;DHT22;33988;47.992;8.820;2023-03-01T05:18:38;5.70;53.60
48043;DHT22;33988;47.992;8.820;2023-03-01T05:21:09;5.70;53.70
48043;DHT22;33988;47.992;8.820;2023-03-01T05:23:38;5.70;53.70
48043;DHT22;33988;47.992;8.820;2023-03-01T05:26:06;5.60;54.30
48043;DHT22;33988;47.992;8.820;2023-03-01T05:28:41;5.60;53.70
48043;DHT22;33988;47.992;8.820;2023-03-01T05:31:08;5.60;53.70
48043;DHT22;33988;47.992;8.820;2023-03-01T05:33:41;5.60;53.60
48043;DHT22;33988;47.992;8.820;2023-03-01T05:36:10;5.50;53.60
48043;DHT22;33988;47.992;8.820;2023-03-01T05:38:37;5.50;53.70
48043;DHT22;33988;47.992;8.820;2023-03-01T05:41:04;5.50;53.80
48043;DHT22;33988;47.992;8.820;2023-03-01T05:43:33;5.50;53.80
48043;DHT22;33988;47.992;8.820;2023-03-01T05:46:00;5.50;53.90
48043;DHT22;33988;47.992;8.820;2023-03-01T05:48:32;5.50;53.90
48043;DHT22;33988;47.992;8.820;2023-03-01T05:50:59;5.50;53.90
48043;DHT22;33988;47.992;8.820;2023-03-01T05:53:27;5.50;53.90
48043;DHT22;33988;47.992;8.820;2023-03-01T05:55:54;5.50;53.90
48043;DHT22;33988;47.992;8.820;2023-03-01T05:58:21;5.50;53.90
48043;DHT22;33988;47.992;8.820;2023-03-01T06:00:48;5.40;53.80
48043;DHT22;33988;47.992;8.820;2023-03-01T06:03:17;5.50;53.90
48043;DHT22;33988;47.992;8.820;2023-03-01T06:05:44;5.50;53.90
48043;DHT22;33988;47.992;8.820;2023-03-01T06:08:12;5.50;54.00
48043;DHT22;33988;47.992;8.820;2023-03-01T06:10:41;5.40;53.90
48043;DHT22;33988;47.992;8.820;2023-03-01T06:13:10;5.40;53.90
48043;DHT22;33988;47.992;8.820;2023-03-01T06:15:37;5.40;54.00
48043;DHT22;33988;47.992;8.820;2023-03-01T06:18:04;5.40;53.90
48043;DHT22;33988;47.992;8.820;2023-03-01T06:20:31;5.40;54.00
48043;DHT22;33988;47.992;8.820;2023-03-01T06:22:58;5.40;54.00
48043;DHT22;33988;47.992;8.820;2023-03-01T06:25:27;5.50;54.10
48043;DHT22;33988;47.992;8.820;2023-03-01T06:27:54;5.50;54.00
48043;DHT22;33988;47.992;8.820;2023-03-01T06:30:24;5.50;54.10
48043;DHT22;33988;47.992;8.820;2023-03-01T06:32:52;5.50;54.00
48043;DHT22;33988;47.992;8.820;2023-03-01T06:35:19;5.50;54.00
48043;DHT22;33988;47.992;8.820;2023-03-01T06:37:48;5.60;54.00
48043;DHT22;33988;47.992;8.820;2023-03-01T06:40:18;5.60;54.00
48043;DHT22;33988;47.992;8.820;2023-03-01T06:42:49;5.60;54.00
48043;DHT22;33988;47.992;8.820;2023-03-01T06:45:18;5.60;54.00
48043;DHT22;33988;47.992;8.820;2023-03-01T06:47:46;5.60;53.90
48043;DHT22;33988;47.992;8.820;2023-03-01T06:50:15;5.60;54.00
48043;DHT22;33988;47.992;8.820;2023-03-01T06:52:43;5.60;53.90
48043;DHT22;33988;47.992;8.820;2023-03-01T06:55:12;5.60;53.90
48043;DHT22;33988;47.992;8.820;2023-03-01T06:57:45;5.60;53.90
48043;DHT22;33988;47.992;8.820;2023-03-01T07:00:14;5.60;53.90
48043;DHT22;33988;47.992;8.820;2023-03-01T07:02:42;5.60;54.60
48043;DHT22;33988;47.992;8.820;2023-03-01T07:05:09;5.60;54.60
48043;DHT22;33988;47.992;8.820;2023-03-01T07:07:37;5.50;53.90
48043;DHT22;33988;47.992;8.820;2023-03-01T07:10:05;5.60;54.00
48043;DHT22;33988;47.992;8.820;2023-03-01T07:12:37;5.50;54.00
48043;DHT22;33988;47.992;8.820;2023-03-01T07:15:08;5.60;54.00
48043;DHT22;33988;47.992;8.820;2023-03-01T07:17:38;5.50;54.00
48043;DHT22;33988;47.992;8.820;2023-03-01T07:20:10;5.50;54.00
48043;DHT22;33988;47.992;8.820;2023-03-01T07:22:40;5.60;54.00
48043;DHT22;33988;47.992;8.820;2023-03-01T07:25:09;5.50;54.00
48043;DHT22;33988;47.992;8.820;2023-03-01T07:27:37;5.60;54.00
48043;DHT22;33988;47.992;8.820;2023-03-01T07:30:04;5.60;54.00
48043;DHT22;33988;47.992;8.820;2023-03-01T07:32:31;5.60;54.00
48043;DHT22;33988;47.992;8.820;2023-03-01T07:35:03;5.60;54.00
48043;DHT22;33988;47.992;8.820;2023-03-01T07:37:30;5.60;54.00
48043;DHT22;33988;47.992;8.820;2023-03-01T07:40:00;5.60;54.00
48043;DHT22;33988;47.992;8.820;2023-03-01T07:42:27;5.60;54.00
48043;DHT22;33988;47.992;8.820;2023-03-01T07:44:54;5.60;54.00
48043;DHT22;33988;47.992;8.820;2023-03-01T07:47:20;5.60;54.10
48043;DHT22;33988;47.992;8.820;2023-03-01T07:49:47;5.60;54.10
48043;DHT22;33988;47.992;8.820;2023-03-01T07:52:14;5.60;54.00
48043;DHT22;33988;47.992;8.820;2023-03-01T07:54:45;5.60;54.00
48043;DHT22;33988;47.992;8.820;2023-03-01T07:57:12;5.60;54.00
48043;DHT22;33988;47.992;8.820;2023-03-01T07:59:39;5.60;54.10
48043;DHT22;33988;47.992;8.820;2023-03-01T08:02:10;5.60;54.10
48043;DHT22;33988;47.992;8.820;2023-03-01T08:04:37;5.60;54.10
48043;DHT22;33988;47.992;8.820;2023-03-01T08:07:05;5.60;54.10
48043;DHT22;33988;47.992;8.820;2023-03-01T08:09:36;5.60;54.10
48043;DHT22;33988;47.992;8.820;2023-03-01T08:12:06;5.70;54.10
48043;DHT22;33988;47.992;8.820;2023-03-01T08:14:33;5.70;54.10
48043;DHT22;33988;47.992;8.820;2023-03-01T08:17:00;5.70;54.10
48043;DHT22;33988;47.992;8.820;2023-03-01T08:19:29;5.70;54.10
48043;DHT22;33988;47.992;8.820;2023-03-01T08:21:56;5.70;54.10
48043;DHT22;33988;47.992;8.820;2023-03-01T08:24:24;5.70;54.10
48043;DHT22;33988;47.992;8.820;2023-03-01T08:26:51;5.70;54.10
48043;DHT22;33988;47.992;8.820;2023-03-01T08:29:21;5.70;54.00
48043;DHT22;33988;47.992;8.820;2023-03-01T08:31:48;5.70;54.70
48043;DHT22;33988;47.992;8.820;2023-03-01T08:34:18;5.80;54.10
48043;DHT22;33988;47.992;8.820;2023-03-01T08:36:46;5.80;54.70
48043;DHT22;33988;47.992;8.820;2023-03-01T08:39:15;5.80;54.00
48043;DHT22;33988;47.992;8.820;2023-03-01T08:41:47;5.80;53.90
48043;DHT22;33988;47.992;8.820;2023-03-01T08:44:15;5.80;53.80
48043;DHT22;33988;47.992;8.820;2023-03-01T08:46:46;5.80;53.80
48043;DHT22;33988;47.992;8.820;2023-03-01T08:49:18;5.80;53.80
48043;DHT22;33988;47.992;8.820;2023-03-01T08:51:46;5.80;53.80
48043;DHT22;33988;47.992;8.820;2023-03-01T08:54:20;5.80;53.80
48043;DHT22;33988;47.992;8.820;2023-03-01T08:56:48;5.80;53.80
48043;DHT22;33988;47.992;8.820;2023-03-01T08:59:16;5.70;53.90
48043;DHT22;33988;47.992;8.820;2023-03-01T09:01:43;5.80;54.20
48043;DHT22;33988;47.992;8.820;2023-03-01T09:04:16;5.80;54.00
48043;DHT22;33988;47.992;8.820;2023-03-01T09:06:43;5.80;54.00
48043;DHT22;33988;47.992;8.820;2023-03-01T09:09:17;5.80;54.60
48043;DHT22;33988;47.992;8.820;2023-03-01T09:11:44;5.90;53.90
48043;DHT22;33988;47.992;8.820;2023-03-01T09:14:16;5.80;53.80
48043;DHT22;33988;47.992;8.820;2023-03-01T09:16:43;5.80;53.80
48043;DHT22;33988;47.992;8.820;2023-03-01T09:19:14;5.90;53.90
48043;DHT22;33988;47.992;8.820;2023-03-01T09:21:43;5.90;53.80
48043;DHT22;33988;47.992;8.820;2023-03-01T09:24:20;5.90;53.80
48043;DHT22;33988;47.992;8.820;2023-03-01T09:26:56;5.90;53.80
48043;DHT22;33988;47.992;8.820;2023-03-01T09:29:25;5.90;53.80
48043;DHT22;33988;47.992;8.820;2023-03-01T09:31:57;5.90;53.80
48043;DHT22;33988;47.992;8.820;2023-03-01T09:34:24;5.90;53.80
48043;DHT22;33988;47.992;8.820;2023-03-01T09:36:51;5.90;53.80
48043;DHT22;33988;47.992;8.820;2023-03-01T09:39:19;5.90;53.80
48043;DHT22;33988;47.992;8.820;2023-03-01T09:41:49;6.00;53.80
48043;DHT22;33988;47.992;8.820;2023-03-01T09:44:47;6.00;53.70
48043;DHT22;33988;47.992;8.820;2023-03-01T09:47:27;5.90;53.60
48043;DHT22;33988;47.992;8.820;2023-03-01T09:50:13;5.90;53.70
48043;DHT22;33988;47.992;8.820;2023-03-01T09:52:47;6.00;53.80
48043;DHT22;33988;47.992;8.820;2023-03-01T09:55:31;6.00;53.90
48043;DHT22;33988;47.992;8.820;2023-03-01T10:00:49;5.90;54.00
48043;DHT22;33988;47.992;8.820;2023-03-01T10:03:26;6.10;53.90
48043;DHT22;33988;47.992;8.820;2023-03-01T10:06:20;6.20;53.90
48043;DHT22;33988;47.992;8.820;2023-03-01T10:09:07;6.20;53.80
48043;DHT22;33988;47.992;8.820;2023-03-01T10:11:48;6.30;53.80
48043;DHT22;33988;47.992;8.820;2023-03-01T10:17:56;6.40;53.70
48043;DHT22;33988;47.992;8.820;2023-03-01T10:20:42;6.40;53.70
48043;DHT22;33988;47.992;8.820;2023-03-01T10:23:14;6.50;53.40
48043;DHT22;33988;47.992;8.820;2023-03-01T10:26:36;6.50;53.40
48043;DHT22;33988;47.992;8.820;2023-03-01T10:34:17;6.50;53.10
48043;DHT22;33988;47.992;8.820;2023-03-01T10:37:29;6.50;53.10
48043;DHT22;33988;47.992;8.820;2023-03-01T10:40:07;6.50;53.10
48043;DHT22;33988;47.992;8.820;2023-03-01T10:42:40;6.50;53.20
48043;DHT22;33988;47.992;8.820;2023-03-01T10:45:19;6.50;53.20
48043;DHT22;33988;47.992;8.820;2023-03-01T10:50:50;6.60;53.10
48043;DHT22;33988;47.992;8.820;2023-03-01T10:53:48;6.60;53.20
48043;DHT22;33988;47.992;8.820;2023-03-01T10:56:17;6.60;53.10
48043;DHT22;33988;47.992;8.820;2023-03-01T10:59:02;6.70;53.10
48043;DHT22;33988;47.992;8.820;2023-03-01T11:01:33;6.70;52.90
48043;DHT22;33988;47.992;8.820;2023-03-01T11:06:35;6.80;53.10
48043;DHT22;33988;47.992;8.820;2023-03-01T11:11:46;6.90;52.80
48043;DHT22;33988;47.992;8.820;2023-03-01T11:14:17;6.90;52.90
48043;DHT22;33988;47.992;8.820;2023-03-01T11:17:18;7.00;52.90
48043;DHT22;33988;47.992;8.820;2023-03-01T11:25:26;7.10;52.80
48043;DHT22;33988;47.992;8.820;2023-03-01T11:27:55;7.20;52.90
48043;DHT22;33988;47.992;8.820;2023-03-01T11:30:34;7.30;52.80
48043;DHT22;33988;47.992;8.820;2023-03-01T11:33:11;7.30;52.70
48043;DHT22;33988;47.992;8.820;2023-03-01T11:36:26;7.40;52.70
48043;DHT22;33988;47.992;8.820;2023-03-01T11:42:18;7.50;52.50
48043;DHT22;33988;47.992;8.820;2023-03-01T11:44:54;7.50;52.50
48043;DHT22;33988;47.992;8.820;2023-03-01T11:53:14;7.70;52.20
48043;DHT22;33988;47.992;8.820;2023-03-01T12:02:09;7.80;52.00
48043;DHT22;33988;47.992;8.820;2023-03-01T12:22:39;7.70;51.50
48043;DHT22;33988;47.992;8.820;2023-03-01T12:28:33;7.70;51.70
48043;DHT22;33988;47.992;8.820;2023-03-01T12:37:27;7.80;51.60
48043;DHT22;33988;47.992;8.820;2023-03-01T12:45:39;7.90;51.80
48043;DHT22;33988;47.992;8.820;2023-03-01T12:51:19;8.00;51.90
48043;DHT22;33988;47.992;8.820;2023-03-01T12:53:51;8.10;51.70
48043;DHT22;33988;47.992;8.820;2023-03-01T12:56:27;8.20;51.60
48043;DHT22;33988;47.992;8.820;2023-03-01T12:59:13;8.20;51.40
48043;DHT22;33988;47.992;8.820;2023-03-01T13:01:54;8.30;51.10
48043;DHT22;33988;47.992;8.820;2023-03-01T13:04:35;8.30;51.10
48043;DHT22;33988;47.992;8.820;2023-03-01T13:07:18;8.40;51.20
48043;DHT22;33988;47.992;8.820;2023-03-01T13:17:51;8.60;51.20
48043;DHT22;33988;47.992;8.820;2023-03-01T13:28:50;8.70;50.70
48043;DHT22;33988;47.992;8.820;2023-03-01T13:39:01;8.90;50.40
48043;DHT22;33988;47.992;8.820;2023-03-01T13:44:33;9.00;50.30
48043;DHT22;33988;47.992;8.820;2023-03-01T13:52:36;9.00;50.00
48043;DHT22;33988;47.992;8.820;2023-03-01T13:57:53;9.00;49.90
48043;DHT22;33988;47.992;8.820;2023-03-01T14:00:44;9.00;49.90
48043;DHT22;33988;47.992;8.820;2023-03-01T14:03:17;9.00;49.70
48043;DHT22;33988;47.992;8.820;2023-03-01T14:08:43;9.00;49.80
48043;DHT22;33988;47.992;8.820;2023-03-01T14:11:40;9.00;50.00
48043;DHT22;33988;47.992;8.820;2023-03-01T14:14:36;9.00;49.60
48043;DHT22;33988;47.992;8.820;2023-03-01T14:17:19;8.90;50.30
48043;DHT22;33988;47.992;8.820;2023-03-01T14:20:26;8.90;49.70
48043;DHT22;33988;47.992;8.820;2023-03-01T14:23:00;8.90;49.60
48043;DHT22;33988;47.992;8.820;2023-03-01T14:25:32;8.90;49.90
48043;DHT22;33988;47.992;8.820;2023-03-01T14:30:46;9.00;49.90
48043;DHT22;33988;47.992;8.820;2023-03-01T14:33:33;9.00;49.80
48043;DHT22;33988;47.992;8.820;2023-03-01T14:36:04;9.00;49.80
48043;DHT22;33988;47.992;8.820;2023-03-01T14:38:38;9.00;50.00
48043;DHT22;33988;47.992;8.820;2023-03-01T14:41:16;9.00;49.90
48043;DHT22;33988;47.992;8.820;2023-03-01T14:46:23;9.10;50.00
48043;DHT22;33988;47.992;8.820;2023-03-01T14:49:02;9.10;49.90
48043;DHT22;33988;47.992;8.820;2023-03-01T14:51:39;9.10;49.80
48043;DHT22;33988;47.992;8.820;2023-03-01T14:57:22;9.10;49.60
48043;DHT22;33988;47.992;8.820;2023-03-01T14:59:59;9.10;49.70
48043;DHT22;33988;47.992;8.820;2023-03-01T15:02:34;9.10;49.70
48043;DHT22;33988;47.992;8.820;2023-03-01T15:05:03;9.10;49.80
48043;DHT22;33988;47.992;8.820;2023-03-01T15:07:38;9.10;49.70
48043;DHT22;33988;47.992;8.820;2023-03-01T15:10:07;9.10;49.70
48043;DHT22;33988;47.992;8.820;2023-03-01T15:12:43;9.00;49.70
48043;DHT22;33988;47.992;8.820;2023-03-01T15:17:57;9.00;49.60
48043;DHT22;33988;47.992;8.820;2023-03-01T15:20:27;9.00;49.70
48043;DHT22;33988;47.992;8.820;2023-03-01T15:22:56;8.90;49.70
48043;DHT22;33988;47.992;8.820;2023-03-01T15:25:26;9.00;49.70
48043;DHT22;33988;47.992;8.820;2023-03-01T15:27:58;9.00;49.70
48043;DHT22;33988;47.992;8.820;2023-03-01T15:30:34;9.00;49.80
48043;DHT22;33988;47.992;8.820;2023-03-01T15:33:27;9.00;49.80
48043;DHT22;33988;47.992;8.820;2023-03-01T15:35:59;8.90;49.70
48043;DHT22;33988;47.992;8.820;2023-03-01T15:43:53;8.90;49.70
48043;DHT22;33988;47.992;8.820;2023-03-01T15:46:33;8.90;49.80
48043;DHT22;33988;47.992;8.820;2023-03-01T15:49:27;8.80;49.70
48043;DHT22;33988;47.992;8.820;2023-03-01T15:52:28;8.80;49.80
48043;DHT22;33988;47.992;8.820;2023-03-01T15:55:15;8.80;50.00
48043;DHT22;33988;47.992;8.820;2023-03-01T15:57:43;8.80;50.00
48043;DHT22;33988;47.992;8.820;2023-03-01T16:00:17;8.80;50.00
48043;DHT22;33988;47.992;8.820;2023-03-01T16:02:48;8.80;50.00
48043;DHT22;33988;47.992;8.820;2023-03-01T16:07:56;8.70;50.00
48043;DHT22;33988;47.992;8.820;2023-03-01T16:10:24;8.70;50.10
48043;DHT22;33988;47.992;8.820;2023-03-01T16:12:51;8.70;50.00
48043;DHT22;33988;47.992;8.820;2023-03-01T16:15:22;8.70;50.00
48043;DHT22;33988;47.992;8.820;2023-03-01T16:17:53;8.70;50.10
48043;DHT22;33988;47.992;8.820;2023-03-01T16:20:22;8.70;50.20
48043;DHT22;33988;47.992;8.820;2023-03-01T16:23:03;8.70;50.20
48043;DHT22;33988;47.992;8.820;2023-03-01T16:25:36;8.60;50.10
48043;DHT22;33988;47.992;8.820;2023-03-01T16:28:06;8.60;50.20
48043;DHT22;33988;47.992;8.820;2023-03-01T16:30:38;8.60;50.20
48043;DHT22;33988;47.992;8.820;2023-03-01T16:33:07;8.60;50.20
48043;DHT22;33988;47.992;8.820;2023-03-01T16:35:52;8.60;50.30
48043;DHT22;33988;47.992;8.820;2023-03-01T16:38:22;8.60;50.40
48043;DHT22;33988;47.992;8.820;2023-03-01T16:40:51;8.60;50.40
48043;DHT22;33988;47.992;8.820;2023-03-01T16:43:18;8.60;50.40
48043;DHT22;33988;47.992;8.820;2023-03-01T16:45:45;8.60;50.40
48043;DHT22;33988;47.992;8.820;2023-03-01T16:48:13;8.60;50.40
48043;DHT22;33988;47.992;8.820;2023-03-01T16:50:40;8.60;50.50
48043;DHT22;33988;47.992;8.820;2023-03-01T16:53:08;8.60;50.50
48043;DHT22;33988;47.992;8.820;2023-03-01T16:55:35;8.60;50.60
48043;DHT22;33988;47.992;8.820;2023-03-01T16:58:04;8.60;50.60
48043;DHT22;33988;47.992;8.820;2023-03-01T17:00:34;8.50;50.50
48043;DHT22;33988;47.992;8.820;2023-03-01T17:03:02;8.50;50.60
48043;DHT22;33988;47.992;8.820;2023-03-01T17:05:32;8.50;50.60
48043;DHT22;33988;47.992;8.820;2023-03-01T17:07:59;8.50;50.70
48043;DHT22;33988;47.992;8.820;2023-03-01T17:10:32;8.50;50.60
48043;DHT22;33988;47.992;8.820;2023-03-01T17:12:59;8.40;50.60
48043;DHT22;33988;47.992;8.820;2023-03-01T17:15:29;8.30;50.60
48043;DHT22;33988;47.992;8.820;2023-03-01T17:17:56;8.30;50.70
48043;DHT22;33988;47.992;8.820;2023-03-01T17:20:23;8.30;50.80
48043;DHT22;33988;47.992;8.820;2023-03-01T17:22:50;8.20;50.90
48043;DHT22;33988;47.992;8.820;2023-03-01T17:25:19;8.20;50.90
48043;DHT22;33988;47.992;8.820;2023-03-01T17:27:46;8.20;51.10
48043;DHT22;33988;47.992;8.820;2023-03-01T17:30:16;8.10;51.10
48043;DHT22;33988;47.992;8.820;2023-03-01T17:32:46;8.10;51.20
48043;DHT22;33988;47.992;8.820;2023-03-01T17:35:13;8.10;52.00
48043;DHT22;33988;47.992;8.820;2023-03-01T17:37:40;8.00;51.30
48043;DHT22;33988;47.992;8.820;2023-03-01T17:40:12;8.00;51.40
48043;DHT22;33988;47.992;8.820;2023-03-01T17:42:39;8.00;51.50
48043;DHT22;33988;47.992;8.820;2023-03-01T17:45:06;8.00;51.70
48043;DHT22;33988;47.992;8.820;2023-03-01T17:47:37;8.00;51.70
48043;DHT22;33988;47.992;8.820;2023-03-01T17:50:04;8.00;51.80
48043;DHT22;33988;47.992;8.820;2023-03-01T17:52:34;8.00;52.40
48043;DHT22;33988;47.992;8.820;2023-03-01T17:55:01;8.00;51.90
48043;DHT22;33988;47.992;8.820;2023-03-01T17:57:28;8.00;52.00
48043;DHT22;33988;47.992;8.820;2023-03-01T17:59:55;8.00;52.00
48043;DHT22;33988;47.992;8.820;2023-03-01T18:02:22;8.00;52.70
48043;DHT22;33988;47.992;8.820;2023-03-01T18:04:52;8.00;52.00
48043;DHT22;33988;47.992;8.820;2023-03-01T18:07:27;8.00;52.10
48043;DHT22;33988;47.992;8.820;2023-03-01T18:09:54;8.10;52.80
48043;DHT22;33988;47.992;8.820;2023-03-01T18:12:22;8.00;52.10
48043;DHT22;33988;47.992;8.820;2023-03-01T18:14:49;8.10;52.20
48043;DHT22;33988;47.992;8.820;2023-03-01T18:17:24;8.10;52.10
48043;DHT22;33988;47.992;8.820;2023-03-01T18:19:52;8.10;52.10
48043;DHT22;33988;47.992;8.820;2023-03-01T18:22:22;8.10;52.80
48043;DHT22;33988;47.992;8.820;2023-03-01T18:24:51;8.10;52.10
48043;DHT22;33988;47.992;8.820;2023-03-01T18:27:18;8.10;52.10
48043;DHT22;33988;47.992;8.820;2023-03-01T18:29:47;8.10;52.00
48043;DHT22;33988;47.992;8.820;2023-03-01T18:32:17;8.10;51.90
48043;DHT22;33988;47.992;8.820;2023-03-01T18:34:43;8.10;51.90
48043;DHT22;33988;47.992;8.820;2023-03-01T18:37:13;8.00;51.80
48043;DHT22;33988;47.992;8.820;2023-03-01T18:39:40;8.00;51.80
48043;DHT22;33988;47.992;8.820;2023-03-01T18:42:07;8.00;51.80
48043;DHT22;33988;47.992;8.820;2023-03-01T18:44:35;7.90;51.80
48043;DHT22;33988;47.992;8.820;2023-03-01T18:47:04;7.90;51.90